createdAt,value
2022-10-12T06:40:02.335Z,6.20
2022-10-12T06:42:30.440Z,6.30
2022-10-12T06:44:58.634Z,6.40
2022-10-12T06:47:26.994Z,6.40
2022-10-12T06:49:55.027Z,6.50
2022-10-12T06:52:23.304Z,6.60
2022-10-12T06:54:51.530Z,6.60
2022-10-12T06:57:21.423Z,6.60
2022-10-12T06:59:49.724Z,6.70
2022-10-12T07:02:17.930Z,6.80
2022-10-12T07:04:46.192Z,6.90
2022-10-12T07:07:14.370Z,6.90
2022-10-12T07:09:42.737Z,7.00
2022-10-12T07:12:10.909Z,7.00
2022-10-12T07:14:40.338Z,7.10
2022-10-12T07:17:08.738Z,7.10
2022-10-12T07:19:36.981Z,7.20
2022-10-12T07:22:05.201Z,7.30
2022-10-12T07:24:36.574Z,7.40
2022-10-12T07:27:06.184Z,7.50
2022-10-12T07:29:34.973Z,7.60
2022-10-12T07:32:05.273Z,7.70
2022-10-12T07:34:33.483Z,7.80
2022-10-12T07:37:02.221Z,7.90
2022-10-12T07:39:30.407Z,8.00
2022-10-12T07:41:58.694Z,8.20
2022-10-12T07:44:27.318Z,8.30
2022-10-12T07:46:55.372Z,8.50
2022-10-12T07:49:25.028Z,8.60
2022-10-12T07:51:53.303Z,8.70
2022-10-12T07:54:26.824Z,8.90
2022-10-12T07:56:57.227Z,9.00
2022-10-12T07:59:25.657Z,9.20
2022-10-12T08:01:54.069Z,9.30
2022-10-12T08:04:22.302Z,9.40
2022-10-12T08:06:52.098Z,9.50
2022-10-12T08:09:20.385Z,9.60
2022-10-12T08:11:48.616Z,9.80
2022-10-12T08:14:18.020Z,10.00
2022-10-12T08:16:46.808Z,10.20
2022-10-12T08:19:15.443Z,10.40
2022-10-12T08:21:44.048Z,10.50
2022-10-12T08:24:14.899Z,10.80
2022-10-12T08:26:43.115Z,11.10
2022-10-12T08:29:11.857Z,11.40
2022-10-12T08:31:41.097Z,11.70
2022-10-12T08:34:09.711Z,11.90
2022-10-12T08:36:38.356Z,11.90
2022-10-12T08:39:12.813Z,11.90
2022-10-12T08:41:53.334Z,12.00
2022-10-12T08:44:39.972Z,12.00
2022-10-12T08:47:15.298Z,11.90
2022-10-12T08:49:49.658Z,11.90
2022-10-12T08:52:34.749Z,11.90
2022-10-12T08:55:18.445Z,12.00
2022-10-12T08:57:50.016Z,12.00
2022-10-12T09:00:19.399Z,11.90
2022-10-12T09:02:57.905Z,11.90
2022-10-12T09:05:31.125Z,11.90
2022-10-12T09:08:04.683Z,11.90
2022-10-12T09:10:45.200Z,11.80
2022-10-12T09:13:28.637Z,11.80
2022-10-12T09:16:01.328Z,11.90
2022-10-12T09:18:40.789Z,12.00
2022-10-12T09:21:12.920Z,12.20
2022-10-12T09:23:44.328Z,12.20
2022-10-12T09:26:17.596Z,12.30
2022-10-12T09:28:50.019Z,12.50
2022-10-12T09:31:29.048Z,12.50
2022-10-12T09:33:59.710Z,12.60
2022-10-12T09:36:30.044Z,12.80
2022-10-12T09:39:01.026Z,12.90
2022-10-12T09:41:34.628Z,13.00
2022-10-12T09:44:05.883Z,13.00
2022-10-12T09:46:41.588Z,13.10
2022-10-12T09:49:10.536Z,13.10
2022-10-12T09:51:39.068Z,13.20
2022-10-12T09:54:07.935Z,13.40
2022-10-12T09:56:44.512Z,13.70
2022-10-12T09:59:28.959Z,14.00
2022-10-12T10:02:06.053Z,14.20
2022-10-12T10:04:34.417Z,14.50
2022-10-12T10:07:23.973Z,15.00
2022-10-12T10:10:10.349Z,15.40
2022-10-12T10:12:43.197Z,15.90
2022-10-12T10:15:24.947Z,16.50
2022-10-12T10:17:55.368Z,17.20
2022-10-12T10:20:31.827Z,17.90
2022-10-12T10:23:01.534Z,18.40
2022-10-12T10:25:29.967Z,18.40
2022-10-12T10:28:23.929Z,18.50
2022-10-12T10:31:02.921Z,18.50
2022-10-12T10:33:32.920Z,18.30
2022-10-12T10:36:08.380Z,18.30
2022-10-12T10:38:56.952Z,18.30
2022-10-12T10:41:29.435Z,18.20
2022-10-12T10:43:57.933Z,18.00
2022-10-12T10:46:30.868Z,17.80
2022-10-12T10:49:06.553Z,17.80
2022-10-12T10:51:44.524Z,17.90
2022-10-12T10:54:18.016Z,18.00
2022-10-12T10:56:48.058Z,18.00
2022-10-12T10:59:21.231Z,18.20
2022-10-12T11:01:55.809Z,18.40
2022-10-12T11:04:29.133Z,18.30
2022-10-12T11:07:03.286Z,18.10
2022-10-12T11:09:40.310Z,18.00
2022-10-12T11:12:16.164Z,18.00
2022-10-12T11:14:49.288Z,18.10
2022-10-12T11:17:24.316Z,18.40
2022-10-12T11:19:57.189Z,18.90
2022-10-12T11:22:31.473Z,19.60
2022-10-12T11:25:08.443Z,20.00
2022-10-12T11:27:39.534Z,20.20
2022-10-12T11:30:15.409Z,20.10
2022-10-12T11:32:48.648Z,19.80
2022-10-12T11:35:22.828Z,19.30
2022-10-12T11:37:55.200Z,19.10
2022-10-12T11:40:55.695Z,19.40
2022-10-12T11:43:21.666Z,20.00
2022-10-12T11:45:53.718Z,20.20
2022-10-12T11:48:28.896Z,20.10
2022-10-12T11:51:03.848Z,19.70
2022-10-12T11:53:41.921Z,19.50
2022-10-12T11:56:15.878Z,19.10
2022-10-12T11:59:00.357Z,18.70
2022-10-12T12:01:41.099Z,18.50
2022-10-12T12:04:41.271Z,18.20
2022-10-12T12:07:44.909Z,18.10
2022-10-12T12:11:04.960Z,18.00
2022-10-12T12:13:34.177Z,18.40
2022-10-12T12:16:33.996Z,18.70
2022-10-12T12:19:19.199Z,19.00
2022-10-12T12:22:25.000Z,18.90
2022-10-12T12:24:56.374Z,18.90
2022-10-12T12:27:31.936Z,19.00
2022-10-12T12:30:01.471Z,19.30
2022-10-12T12:32:44.591Z,19.50
2022-10-12T12:35:24.183Z,19.70
2022-10-12T12:38:04.460Z,19.50
2022-10-12T12:40:33.704Z,19.40
2022-10-12T12:43:22.227Z,19.30
2022-10-12T12:46:01.362Z,20.00
2022-10-12T12:49:00.658Z,21.00
2022-10-12T12:51:38.990Z,22.10
2022-10-12T12:54:14.915Z,22.50
2022-10-12T12:57:05.047Z,22.20
2022-10-12T13:00:09.141Z,21.60
2022-10-12T13:03:09.461Z,21.00
2022-10-12T13:06:10.018Z,20.30
2022-10-12T13:09:01.456Z,19.90
2022-10-12T13:11:53.324Z,19.70
2022-10-12T13:14:47.073Z,19.30
2022-10-12T13:17:33.726Z,19.30
2022-10-12T13:20:04.072Z,19.30
2022-10-12T13:22:35.937Z,19.50
2022-10-12T13:25:09.193Z,20.00
2022-10-12T13:27:43.627Z,20.90
2022-10-12T13:30:22.242Z,21.40
2022-10-12T13:32:57.107Z,21.40
2022-10-12T13:35:33.601Z,20.90
2022-10-12T13:38:04.863Z,20.40
2022-10-12T13:40:39.267Z,20.00
2022-10-12T13:43:30.280Z,19.50
2022-10-12T13:45:59.105Z,19.20
2022-10-12T13:48:53.791Z,19.10
2022-10-12T13:51:27.300Z,19.20
2022-10-12T13:53:56.088Z,19.20
2022-10-12T13:56:29.633Z,19.30
2022-10-12T13:59:04.160Z,19.30
2022-10-12T14:01:35.662Z,19.70
2022-10-12T14:04:05.682Z,20.40
2022-10-12T14:06:38.056Z,20.80
2022-10-12T14:09:10.729Z,21.30
2022-10-12T14:11:41.868Z,21.60
2022-10-12T14:14:20.976Z,21.70
2022-10-12T14:16:51.744Z,21.60
2022-10-12T14:19:22.175Z,21.30
2022-10-12T14:21:51.320Z,21.10
2022-10-12T14:24:20.582Z,20.70
2022-10-12T14:26:57.108Z,20.40
2022-10-12T14:29:34.346Z,20.00
2022-10-12T14:32:04.317Z,19.70
2022-10-12T14:34:42.470Z,19.40
2022-10-12T14:37:31.496Z,19.30
2022-10-12T14:40:04.106Z,19.40
2022-10-12T14:42:35.994Z,19.20
2022-10-12T14:45:06.763Z,19.00
2022-10-12T14:47:38.937Z,18.80
2022-10-12T14:50:08.971Z,18.70
2022-10-12T14:52:41.097Z,18.70
2022-10-12T14:55:16.539Z,18.60
2022-10-12T14:57:46.441Z,18.70
2022-10-12T15:00:16.814Z,18.90
2022-10-12T15:02:45.384Z,19.20
2022-10-12T15:05:15.222Z,19.50
2022-10-12T15:07:43.916Z,19.90
2022-10-12T15:10:12.395Z,20.50
2022-10-12T15:12:40.909Z,20.70
2022-10-12T15:15:29.154Z,20.60
2022-10-12T15:17:58.268Z,20.20
2022-10-12T15:20:27.095Z,19.90
2022-10-12T15:22:55.603Z,19.80
2022-10-12T15:25:27.390Z,20.40
2022-10-12T15:27:55.829Z,21.00
2022-10-12T15:30:25.521Z,21.20
2022-10-12T15:32:53.757Z,20.70
2022-10-12T15:35:24.461Z,20.40
2022-10-12T15:37:53.309Z,19.90
2022-10-12T15:40:22.618Z,19.60
2022-10-12T15:42:50.766Z,19.40
2022-10-12T15:45:23.915Z,19.20
2022-10-12T15:47:54.819Z,19.00
2022-10-12T15:50:25.163Z,18.70
2022-10-12T15:52:54.351Z,18.60
2022-10-12T15:55:25.330Z,18.50
2022-10-12T15:57:53.776Z,18.30
2022-10-12T16:00:26.085Z,18.20
2022-10-12T16:02:57.474Z,18.20
2022-10-12T16:05:28.730Z,18.10
2022-10-12T16:07:58.057Z,18.00
2022-10-12T16:10:29.924Z,17.90
2022-10-12T16:12:58.441Z,17.90
2022-10-12T16:15:30.229Z,17.90
2022-10-12T16:18:01.482Z,17.90
2022-10-12T16:20:31.904Z,17.80
